Aérodrome :
LOGIN :

S'inscrire | Disclaimer

   EN    FR    IT 

 










Légende :    VFR   VFR Marginal   IFR   IFR Intensif   IFR Très Intensif
Visi : 
Plafond : 
>= 8 km
>= 3000ft
5 à 8 km
1000 à 3000 ft
1500m à 5 km
500 à 1000 ft
800 à 1500m
200 à 500 ft
< 800m
< 200 ft
Symboles :   Orages  Brouillard  Fortes neiges  Fortes précipitations  Vent > 20 kt
SIGMETs :   Divers  Orages  Givrage  Turbulence  Onde Orograph.  Cendres Volcan.







- Altitude de l'aérodrome : 79 ft
- Code IATA : SPU


LDSP - Split

DERNIER METAR :
  • 210800Z VRB02KT 9999 SCT050 14/12 Q1011 NOSIG

METARs EXPIRÉS :
  • 210730Z 20001KT 9999 SCT050 14/12 Q1011 NOSIG
  • 210700Z 33004KT 290V040 9999 BKN040 14/11 Q1010 NOSIG
  • 210630Z 31007KT 9999 BKN040 13/11 Q1010 NOSIG
  • 210600Z 24003KT 210V300 9999 BKN040 13/12 Q1010 NOSIG
  • 210530Z 25005KT 9999 BKN045 13/11 Q1010 NOSIG
  • 210500Z 23003KT 9999 BKN045 13/11 Q1009 NOSIG

TAF TAF LDSP
Valide du 21 à 06h jusqu'au 22 à 06h UTC


210525Z 2106/2206 34006KT 9999 SCT040 TX16/2113Z TN09/2202Z
TEMPO 2106/2114 23008KT RA
Pas de NOTAMs connus pour ce terrain.
1 SIGMET publié pour la FIR Zagreb (LDZO) :
 
Givrage fort avec pluie surfondue
LDZO SIGMET 1 VALID 210719/210930 LDZA
LDZO ZAGREB FIR SEV ICE (FZRA) OBS WI N4539 E01435 - N4500 E01543 - N4422 E01610 - N4412 E01547 - N4442 E01503 - N4510 E01455 - N4527 E01414 - N4539 E01435 2500/5000FT STNR WKN=



MET'MAP, la Météo Aéronautique d'un coup d'oeil ! - Copyright ORBIFLY Décembre 2007 - Disclaimer

ORBIFLY MET'MAP TEAM :

Programmation & Développement : Alexandra Zaïnal
Conception & Développement : Baudouin d'Aumeries
Co-Programmation & Développement : Marc-Olivier Méhu
Soutien technique & logistique : Manuel Goepfert

Contact : metmap@orbifly.com




SOURCES & CREDITS :

   NOAA